Time;durP1;ratioP1;P1;durP2;ratioP2;P2;SDS_P1;SDS_P2;PMS_P1;PMS_P2;Temp;Humidity;BMP_temperature;BMP_pressure;BME280_temperature;BME280_humidity;BME280_pressure;Samples;Min_cycle;Max_cycle;Signal;HPM_P1;HPM_P2
2021/05/23 00:01:30;;;;;;;3.70;1.00;;;13.80;1.00;;;;;;5107878;28;20686;-58
2021/05/23 00:03:56;;;;;;;1.70;1.60;;;13.70;1.00;;;;;;5099241;28;20191;-57
2021/05/23 00:06:21;;;;;;;3.13;1.20;;;13.70;1.00;;;;;;5088950;28;20574;-56
2021/05/23 00:08:47;;;;;;;3.27;1.07;;;13.60;1.00;;;;;;5107554;28;20186;-57
2021/05/23 00:11:12;;;;;;;3.50;1.23;;;13.50;1.00;;;;;;5104564;28;20574;-56
2021/05/23 00:13:42;;;;;;;1.40;1.20;;;13.40;1.00;;;;;;5100721;28;20178;-57
2021/05/23 00:16:10;;;;;;;2.10;0.73;;;13.40;1.00;;;;;;5103488;28;20190;-57
2021/05/23 00:18:40;;;;;;;1.60;1.00;;;13.40;1.00;;;;;;5099130;28;20762;-56
2021/05/23 00:21:07;;;;;;;2.00;0.90;;;13.50;1.00;;;;;;5101730;28;20471;-57
2021/05/23 00:23:33;;;;;;;1.60;1.30;;;13.40;1.00;;;;;;5103326;28;20962;-57
2021/05/23 00:25:58;;;;;;;2.63;2.20;;;13.40;1.00;;;;;;5101217;28;20436;-57
2021/05/23 00:28:24;;;;;;;2.67;1.00;;;13.30;1.00;;;;;;5097970;28;20436;-57
2021/05/23 00:30:49;;;;;;;2.40;1.73;;;13.30;1.00;;;;;;5101845;28;20686;-56
2021/05/23 00:33:16;;;;;;;1.70;1.27;;;13.20;1.00;;;;;;5100506;28;20744;-57
2021/05/23 00:35:42;;;;;;;2.40;1.30;;;13.30;1.00;;;;;;5100236;28;20270;-56
2021/05/23 00:38:09;;;;;;;1.97;1.23;;;13.20;1.00;;;;;;5095455;28;20444;-57
2021/05/23 00:40:36;;;;;;;1.30;1.20;;;13.10;1.00;;;;;;5090653;28;20439;-57
2021/05/23 00:43:06;;;;;;;2.80;1.23;;;13.00;1.00;;;;;;5108078;28;20477;-57
2021/05/23 00:45:32;;;;;;;4.43;1.73;;;13.00;1.00;;;;;;5097959;28;20929;-57
2021/05/23 00:47:58;;;;;;;4.60;1.63;;;13.00;1.00;;;;;;5102652;28;20797;-57
2021/05/23 00:50:25;;;;;;;3.43;1.53;;;12.90;1.00;;;;;;5082179;28;20446;-56
2021/05/23 00:52:55;;;;;;;1.80;1.50;;;12.90;1.00;;;;;;5110239;28;20213;-56
2021/05/23 00:55:21;;;;;;;1.93;1.53;;;12.80;1.00;;;;;;5110000;28;20829;-56
2021/05/23 00:57:48;;;;;;;2.30;2.07;;;12.80;1.00;;;;;;5106110;28;20440;-56
2021/05/23 01:00:39;;;;;;;1.73;1.63;;;12.60;1.00;;;;;;5104926;28;20451;-57
2021/05/23 01:03:27;;;;;;;2.03;1.70;;;12.60;1.00;;;;;;5109056;28;20447;-56
2021/05/23 01:05:53;;;;;;;2.03;1.20;;;12.60;1.00;;;;;;5089166;28;20516;-57
2021/05/23 01:08:19;;;;;;;2.77;1.80;;;12.60;1.00;;;;;;5105537;28;20438;-56
2021/05/23 01:11:04;;;;;;;3.73;1.90;;;12.60;1.00;;;;;;5108656;28;20706;-56
2021/05/23 01:13:37;;;;;;;2.70;1.67;;;12.60;1.00;;;;;;5111440;28;20501;-57
2021/05/23 01:16:18;;;;;;;2.50;1.40;;;12.60;1.00;;;;;;5103736;28;20437;-56
2021/05/23 01:18:53;;;;;;;3.97;2.87;;;12.50;1.00;;;;;;5100954;28;20433;-57
2021/05/23 01:21:22;;;;;;;3.70;2.10;;;12.40;1.00;;;;;;5104855;28;20435;-55
2021/05/23 01:24:00;;;;;;;3.13;2.60;;;12.30;1.00;;;;;;5104523;28;20433;-56
2021/05/23 01:26:32;;;;;;;5.13;2.50;;;12.20;1.00;;;;;;5109666;28;21005;-55
2021/05/23 01:29:03;;;;;;;1.93;1.73;;;12.20;1.00;;;;;;5104399;28;20444;-57
2021/05/23 01:31:30;;;;;;;2.90;2.40;;;12.20;1.00;;;;;;5107645;28;20482;-55
2021/05/23 01:33:58;;;;;;;3.50;2.40;;;12.20;1.00;;;;;;5101895;28;20584;-56
2021/05/23 01:36:28;;;;;;;2.80;2.20;;;12.20;1.00;;;;;;5109787;28;20962;-56
2021/05/23 01:38:54;;;;;;;2.20;1.93;;;12.20;1.00;;;;;;5110211;28;20447;-56
2021/05/23 01:41:22;;;;;;;2.73;1.87;;;12.20;1.00;;;;;;5107804;28;21016;-57
2021/05/23 01:43:48;;;;;;;3.00;1.87;;;12.10;1.00;;;;;;5087058;28;20860;-56
2021/05/23 01:46:14;;;;;;;3.27;1.80;;;12.10;1.00;;;;;;5108764;28;20552;-56
2021/05/23 01:48:41;;;;;;;3.77;2.10;;;12.10;1.00;;;;;;5102392;28;20472;-56
2021/05/23 01:51:07;;;;;;;3.70;1.97;;;12.10;1.00;;;;;;5109336;28;20447;-57
2021/05/23 01:53:34;;;;;;;2.27;1.97;;;12.20;1.00;;;;;;5092969;28;20247;-57
2021/05/23 01:56:00;;;;;;;2.37;2.17;;;12.20;1.00;;;;;;5109730;28;20462;-56
2021/05/23 01:58:26;;;;;;;5.27;2.40;;;12.10;1.00;;;;;;5104769;28;20439;-56
2021/05/23 02:00:53;;;;;;;3.63;2.40;;;12.10;1.00;;;;;;5104483;28;20787;-56
2021/05/23 02:03:21;;;;;;;6.90;1.73;;;12.10;1.00;;;;;;5103276;28;20501;-56
2021/05/23 02:05:49;;;;;;;5.30;2.23;;;12.20;1.00;;;;;;5082200;28;20471;-56
2021/05/23 02:08:17;;;;;;;2.63;1.70;;;12.20;1.00;;;;;;5085138;28;20446;-57
2021/05/23 02:10:43;;;;;;;5.93;2.60;;;12.30;1.00;;;;;;5081606;28;20439;-56
2021/05/23 02:13:09;;;;;;;2.83;2.30;;;12.30;1.00;;;;;;5106477;28;20938;-57
2021/05/23 02:15:36;;;;;;;2.70;2.10;;;12.10;1.00;;;;;;5107257;28;20435;-57
2021/05/23 02:18:03;;;;;;;4.07;2.53;;;12.30;1.00;;;;;;5108089;28;20450;-57
2021/05/23 02:20:30;;;;;;;3.27;1.90;;;12.20;1.00;;;;;;5105013;28;20471;-56
2021/05/23 02:22:58;;;;;;;3.20;2.10;;;12.20;1.00;;;;;;5101117;28;20443;-57
2021/05/23 02:25:25;;;;;;;2.80;1.97;;;12.20;1.00;;;;;;5103529;28;20489;-57
2021/05/23 02:27:53;;;;;;;3.20;2.33;;;12.10;1.00;;;;;;5106964;28;20438;-56
2021/05/23 02:30:28;;;;;;;2.90;2.13;;;15.70;1.00;;;;;;5100079;28;20521;-57
2021/05/23 02:32:55;;;;;;;3.47;2.30;;;12.00;1.00;;;;;;5083618;28;20474;-56
2021/05/23 02:35:22;;;;;;;5.40;2.17;;;12.00;1.00;;;;;;5086351;28;20458;-56
2021/05/23 02:37:49;;;;;;;2.27;1.97;;;12.10;1.00;;;;;;5069445;28;20471;-56
2021/05/23 02:40:17;;;;;;;4.40;2.07;;;12.10;1.00;;;;;;5070735;28;20433;-56
2021/05/23 02:42:43;;;;;;;3.00;2.30;;;12.20;1.00;;;;;;5070634;28;20466;-57
2021/05/23 02:45:10;;;;;;;3.57;2.50;;;12.20;1.00;;;;;;5066342;28;20453;-57
2021/05/23 02:47:37;;;;;;;2.03;1.77;;;12.30;1.00;;;;;;5069286;28;20471;-57
2021/05/23 02:50:09;;;;;;;3.20;2.17;;;12.30;1.00;;;;;;5070501;28;20437;-57
2021/05/23 02:52:35;;;;;;;4.63;2.20;;;12.40;1.00;;;;;;5070977;28;20453;-56
2021/05/23 02:55:00;;;;;;;1.87;1.60;;;12.40;1.00;;;;;;5069955;28;20423;-56
2021/05/23 02:57:26;;;;;;;3.83;2.47;;;12.40;1.00;;;;;;5069738;28;20523;-56
2021/05/23 02:59:51;;;;;;;2.97;1.60;;;12.50;1.00;;;;;;5069851;28;20190;-56
2021/05/23 03:02:18;;;;;;;3.43;1.93;;;12.50;1.00;;;;;;5069634;28;20510;-57
2021/05/23 03:04:43;;;;;;;3.70;1.97;;;12.50;1.00;;;;;;5069584;28;20210;-56
2021/05/23 03:07:10;;;;;;;4.20;1.77;;;12.60;1.00;;;;;;5068045;28;20448;-56
2021/05/23 03:09:36;;;;;;;4.47;1.80;;;12.60;1.00;;;;;;5069570;28;20190;-56
2021/05/23 03:12:01;;;;;;;1.97;1.70;;;12.70;1.00;;;;;;5070920;28;20457;-56
2021/05/23 03:14:27;;;;;;;4.20;2.57;;;12.70;1.00;;;;;;5068517;28;20320;-56
2021/05/23 03:16:54;;;;;;;2.73;1.60;;;;;;;;;;5070155;28;20175;-57
2021/05/23 03:19:20;;;;;;;2.23;1.90;;;12.80;1.00;;;;;;5067764;28;20191;-56
2021/05/23 03:21:45;;;;;;;2.97;1.90;;;12.80;1.00;;;;;;5069711;28;20447;-57
2021/05/23 03:24:11;;;;;;;2.03;1.50;;;12.80;1.00;;;;;;5069098;28;20190;-58
2021/05/23 03:26:37;;;;;;;2.17;1.47;;;12.90;1.00;;;;;;5067886;28;20177;-56
2021/05/23 03:29:03;;;;;;;2.70;1.47;;;12.90;1.00;;;;;;5070638;28;21041;-55
2021/05/23 03:31:29;;;;;;;3.93;2.40;;;12.90;1.00;;;;;;5068280;28;20278;-56
2021/05/23 03:33:54;;;;;;;6.53;2.83;;;12.90;1.00;;;;;;5067006;28;20444;-56
2021/05/23 03:36:20;;;;;;;3.83;1.83;;;12.80;1.00;;;;;;5082779;28;20629;-56
2021/05/23 03:38:47;;;;;;;2.70;1.97;;;13.00;1.00;;;;;;5099631;28;20187;-56
2021/05/23 03:41:14;;;;;;;2.67;2.13;;;12.90;1.00;;;;;;5105262;28;20528;-54
2021/05/23 03:43:40;;;;;;;2.53;1.90;;;12.90;1.00;;;;;;5086593;28;20447;-57
2021/05/23 03:46:06;;;;;;;2.53;2.00;;;12.80;1.00;;;;;;5105120;28;20538;-58
2021/05/23 03:48:31;;;;;;;2.73;1.90;;;12.70;1.00;;;;;;5106355;28;20546;-56
2021/05/23 03:50:58;;;;;;;2.20;2.00;;;12.70;1.00;;;;;;5088282;28;20222;-57
2021/05/23 03:53:23;;;;;;;4.20;1.90;;;12.70;1.00;;;;;;5088268;28;20571;-56
2021/05/23 03:55:49;;;;;;;3.80;1.70;;;12.60;1.00;;;;;;5085321;28;20869;-56
2021/05/23 03:58:16;;;;;;;3.40;2.00;;;12.60;1.00;;;;;;5105271;28;20178;-57
2021/05/23 04:00:41;;;;;;;2.77;2.10;;;12.60;1.00;;;;;;5099981;28;20199;-56
2021/05/23 04:03:07;;;;;;;3.23;1.53;;;12.60;1.00;;;;;;5103620;28;20473;-57
2021/05/23 04:05:33;;;;;;;2.60;2.10;;;12.70;1.00;;;;;;5103051;28;20226;-56
2021/05/23 04:07:59;;;;;;;4.33;2.00;;;12.60;1.00;;;;;;5105137;28;20190;-56
2021/05/23 04:10:31;;;;;;;2.67;1.50;;;12.40;1.00;;;;;;5101073;28;20230;-56
2021/05/23 04:12:58;;;;;;;5.50;2.03;;;12.60;1.00;;;;;;5103923;28;20463;-56
2021/05/23 04:15:24;;;;;;;1.70;1.57;;;12.70;1.00;;;;;;5103149;28;20443;-57
2021/05/23 04:17:50;;;;;;;3.73;1.50;;;12.80;1.00;;;;;;5099141;28;20439;-56
2021/05/23 04:20:19;;;;;;;1.90;1.53;;;12.90;1.00;;;;;;5107663;28;20447;-56
2021/05/23 04:22:46;;;;;;;1.60;1.50;;;13.00;1.00;;;;;;5105811;28;20440;-56
2021/05/23 04:25:14;;;;;;;2.17;1.27;;;13.10;1.00;;;;;;5102311;28;20461;-55
2021/05/23 04:27:44;;;;;;;1.50;1.40;;;13.10;1.00;;;;;;5107216;28;20548;-54
2021/05/23 04:30:11;;;;;;;1.90;1.43;;;13.20;1.00;;;;;;5108075;28;20454;-56
2021/05/23 04:32:37;;;;;;;6.23;2.30;;;13.40;1.00;;;;;;5089881;28;20466;-55
2021/05/23 04:35:04;;;;;;;1.00;0.80;;;13.50;1.00;;;;;;5107757;28;20466;-57
2021/05/23 04:37:30;;;;;;;2.13;1.33;;;13.60;1.00;;;;;;5107463;28;20474;-56
2021/05/23 04:39:56;;;;;;;2.73;1.40;;;13.60;1.00;;;;;;5110132;28;20460;-55
2021/05/23 04:42:22;;;;;;;4.00;1.90;;;13.70;1.00;;;;;;5108461;28;20471;-56
2021/05/23 04:44:47;;;;;;;2.37;1.50;;;13.80;1.00;;;;;;5105198;28;20626;-56
2021/05/23 04:47:13;;;;;;;5.60;1.10;;;13.80;1.00;;;;;;5112138;28;20677;-56
2021/05/23 04:49:39;;;;;;;2.10;1.10;;;13.80;1.00;;;;;;5106006;28;20656;-56
2021/05/23 04:52:09;;;;;;;2.17;1.20;;;13.90;1.00;;;;;;5110580;28;20606;-56
2021/05/23 04:54:36;;;;;;;2.20;1.33;;;13.90;1.00;;;;;;5107524;28;20436;-54
2021/05/23 04:57:01;;;;;;;1.87;1.60;;;14.10;1.00;;;;;;5107875;27;20436;-57
2021/05/23 04:59:27;;;;;;;3.07;1.17;;;14.10;1.00;;;;;;5095626;28;20432;-56
2021/05/23 05:01:52;;;;;;;2.27;1.37;;;14.30;1.00;;;;;;5108074;28;20218;-55
2021/05/23 05:04:18;;;;;;;3.47;1.40;;;14.50;1.00;;;;;;5106394;28;20211;-55
2021/05/23 05:06:44;;;;;;;3.13;1.40;;;14.70;1.00;;;;;;5105017;28;20186;-55
2021/05/23 05:09:09;;;;;;;3.97;1.20;;;14.80;1.00;;;;;;5110369;28;20543;-54
2021/05/23 05:11:35;;;;;;;5.33;1.40;;;15.00;1.00;;;;;;5109245;27;20239;-55
2021/05/23 05:14:01;;;;;;;4.63;1.17;;;15.30;1.00;;;;;;5106186;28;20186;-55
2021/05/23 05:16:26;;;;;;;2.13;1.17;;;15.40;1.00;;;;;;5110073;28;20501;-57
2021/05/23 05:18:53;;;;;;;2.20;0.90;;;15.50;1.00;;;;;;5111414;28;20208;-56
2021/05/23 05:21:19;;;;;;;2.37;1.17;;;15.60;1.00;;;;;;5096958;28;20189;-56
2021/05/23 05:23:45;;;;;;;2.93;1.07;;;15.90;1.00;;;;;;5105553;28;20467;-55
2021/05/23 05:26:11;;;;;;;2.00;0.90;;;16.00;1.00;;;;;;5110077;28;20517;-55
2021/05/23 05:28:36;;;;;;;2.20;0.70;;;16.20;1.00;;;;;;5106454;28;20659;-55
2021/05/23 05:31:02;;;;;;;4.73;0.97;;;16.20;1.00;;;;;;5111651;28;20438;-55
2021/05/23 05:33:27;;;;;;;1.80;1.07;;;16.00;1.00;;;;;;5105349;28;20205;-55
2021/05/23 05:35:53;;;;;;;1.53;1.00;;;16.00;1.00;;;;;;5108092;28;20622;-58
2021/05/23 05:38:19;;;;;;;3.70;0.90;;;15.80;1.00;;;;;;5085538;28;20182;-55
2021/05/23 05:40:44;;;;;;;1.57;0.60;;;15.80;1.00;;;;;;5105107;28;20197;-54
2021/05/23 05:43:11;;;;;;;2.00;1.43;;;15.60;1.00;;;;;;5080514;28;20494;-54
2021/05/23 05:45:37;;;;;;;0.87;0.57;;;15.60;1.00;;;;;;5109676;28;20631;-56
2021/05/23 05:48:02;;;;;;;2.20;0.73;;;15.60;1.00;;;;;;5106487;28;20504;-55
2021/05/23 05:50:28;;;;;;;1.27;0.80;;;15.60;1.00;;;;;;5100769;28;20182;-54
2021/05/23 05:52:53;;;;;;;2.00;1.13;;;15.60;1.00;;;;;;5091544;28;20289;-54
2021/05/23 05:55:19;;;;;;;2.00;0.90;;;15.70;1.00;;;;;;5102778;28;20290;-54
2021/05/23 05:57:45;;;;;;;1.43;0.80;;;15.70;1.00;;;;;;5105279;28;20591;-56
2021/05/23 06:00:11;;;;;;;1.90;0.80;;;15.70;1.00;;;;;;5106607;28;20182;-56
2021/05/23 06:02:36;;;;;;;1.53;0.80;;;15.80;1.00;;;;;;5101331;28;20189;-56
2021/05/23 06:05:02;;;;;;;2.57;0.80;;;15.90;1.00;;;;;;5111058;28;20445;-56
2021/05/23 06:07:28;;;;;;;5.73;1.30;;;16.20;1.00;;;;;;5106673;28;20647;-56
2021/05/23 06:09:54;;;;;;;1.13;0.77;;;16.40;1.00;;;;;;5104510;28;20528;-54
2021/05/23 06:12:20;;;;;;;2.23;1.00;;;16.40;1.00;;;;;;5099346;28;20208;-55
2021/05/23 06:14:46;;;;;;;1.00;0.77;;;16.40;1.00;;;;;;5099918;28;20200;-57
2021/05/23 06:17:11;;;;;;;0.93;0.70;;;16.60;1.00;;;;;;5089737;28;20436;-55
2021/05/23 06:19:37;;;;;;;1.03;0.67;;;16.60;1.00;;;;;;5106024;28;20641;-57
2021/05/23 06:22:03;;;;;;;1.33;0.83;;;16.40;1.00;;;;;;5104945;28;20197;-56
2021/05/23 06:24:28;;;;;;;1.37;0.67;;;16.10;1.00;;;;;;5106040;28;20186;-55
2021/05/23 06:26:54;;;;;;;1.53;0.83;;;16.10;1.00;;;;;;5107792;28;20249;-54
2021/05/23 06:29:19;;;;;;;1.37;0.90;;;16.30;1.00;;;;;;5106071;28;20182;-54
2021/05/23 06:31:45;;;;;;;2.00;0.83;;;16.30;1.00;;;;;;5106485;28;20228;-54
2021/05/23 06:34:12;;;;;;;2.47;0.70;;;16.10;1.00;;;;;;5107625;28;20171;-55
2021/05/23 06:36:37;;;;;;;2.40;0.80;;;16.00;1.00;;;;;;5098650;28;20289;-54
2021/05/23 06:39:05;;;;;;;0.90;0.70;;;15.90;1.00;;;;;;5102839;28;20540;-56
2021/05/23 06:41:30;;;;;;;1.37;1.27;;;16.10;1.00;;;;;;5109937;28;20180;-54
2021/05/23 06:43:56;;;;;;;1.13;0.70;;;;;;;;;;5101238;28;20492;-55
2021/05/23 06:46:22;;;;;;;1.00;0.70;;;16.20;1.00;;;;;;5110074;28;20190;-56
2021/05/23 06:48:47;;;;;;;1.33;0.80;;;16.20;1.00;;;;;;5111480;28;20458;-55
2021/05/23 06:51:13;;;;;;;2.43;0.70;;;;;;;;;;5104216;28;20185;-54
2021/05/23 06:53:39;;;;;;;4.90;0.70;;;16.40;1.00;;;;;;5107810;28;20327;-55
2021/05/23 06:56:06;;;;;;;2.63;1.10;;;16.20;1.00;;;;;;5107975;28;20526;-55
2021/05/23 06:58:31;;;;;;;1.60;0.70;;;16.10;1.00;;;;;;5108357;28;20311;-54
2021/05/23 07:00:57;;;;;;;2.93;0.70;;;16.00;1.00;;;;;;5098849;28;20543;-54
2021/05/23 07:03:23;;;;;;;1.30;0.70;;;15.90;1.00;;;;;;5108303;28;20197;-56
2021/05/23 07:05:48;;;;;;;2.10;0.97;;;16.40;1.00;;;;;;5111093;28;20439;-56
2021/05/23 07:08:16;;;;;;;1.07;0.97;;;16.70;1.00;;;;;;5110932;28;20209;-55
2021/05/23 07:10:42;;;;;;;2.00;0.90;;;16.80;1.00;;;;;;5103630;28;20182;-56
2021/05/23 07:13:08;;;;;;;3.00;1.47;;;16.90;1.00;;;;;;5101198;28;20483;-54
2021/05/23 07:15:33;;;;;;;3.23;0.80;;;16.70;1.00;;;;;;5108282;28;20182;-56
2021/05/23 07:17:59;;;;;;;1.27;0.83;;;17.00;1.00;;;;;;5090798;28;20538;-56
2021/05/23 07:20:27;;;;;;;0.80;0.70;;;17.30;1.00;;;;;;5080846;28;20684;-56
2021/05/23 07:22:53;;;;;;;2.17;0.67;;;17.20;1.00;;;;;;5108440;28;20193;-55
2021/05/23 07:25:19;;;;;;;2.03;0.83;;;17.20;1.00;;;;;;5108340;28;20452;-56
2021/05/23 07:27:45;;;;;;;1.67;0.90;;;17.10;1.00;;;;;;5110364;28;20447;-57
2021/05/23 07:30:11;;;;;;;1.10;0.67;;;17.40;1.00;;;;;;5109876;28;20183;-56
2021/05/23 07:32:37;;;;;;;7.63;1.43;;;17.30;1.00;;;;;;5110412;27;20213;-54
2021/05/23 07:35:03;;;;;;;1.27;0.80;;;17.10;1.00;;;;;;5104747;28;20441;-55
2021/05/23 07:37:28;;;;;;;1.80;0.90;;;17.00;1.00;;;;;;5110000;28;20241;-56
2021/05/23 07:39:54;;;;;;;1.17;0.80;;;16.60;1.00;;;;;;5092294;28;20482;-56
2021/05/23 07:42:19;;;;;;;3.03;1.30;;;16.60;1.00;;;;;;5110003;28;20711;-55
2021/05/23 07:44:45;;;;;;;1.40;0.77;;;16.70;1.00;;;;;;5110571;28;20308;-55
2021/05/23 07:47:10;;;;;;;1.10;0.87;;;16.70;1.00;;;;;;5106737;28;20211;-57
2021/05/23 07:49:41;;;;;;;1.10;0.80;;;16.90;1.00;;;;;;5100235;28;20755;-57
2021/05/23 07:52:11;;;;;;;1.70;0.70;;;19.50;1.00;;;;;;5110015;28;20793;-54
2021/05/23 07:54:38;;;;;;;0.70;0.70;;;16.70;1.00;;;;;;5109962;28;20489;-56
2021/05/23 07:57:04;;;;;;;2.60;0.87;;;16.50;1.00;;;;;;5109856;28;20431;-56
2021/05/23 07:59:30;;;;;;;1.33;0.67;;;16.50;1.00;;;;;;5109528;28;20435;-57
2021/05/23 08:01:55;;;;;;;0.90;0.60;;;16.50;1.00;;;;;;5107560;28;20446;-56
2021/05/23 08:04:21;;;;;;;2.90;0.73;;;16.60;1.00;;;;;;5106977;28;20209;-55
2021/05/23 08:06:47;;;;;;;1.60;0.73;;;16.80;1.00;;;;;;5103027;28;20182;-56
2021/05/23 08:09:12;;;;;;;1.20;0.70;;;16.80;1.00;;;;;;5111413;28;20190;-55
2021/05/23 08:11:38;;;;;;;2.00;0.60;;;16.80;1.00;;;;;;5088397;28;20217;-54
2021/05/23 08:14:03;;;;;;;1.77;0.70;;;17.00;1.00;;;;;;5095309;28;20551;-55
2021/05/23 08:16:29;;;;;;;1.27;0.80;;;17.00;1.00;;;;;;5114178;28;20513;-54
2021/05/23 08:18:55;;;;;;;1.93;0.70;;;17.20;1.00;;;;;;5113076;28;20974;-54
2021/05/23 08:21:20;;;;;;;1.33;0.67;;;17.60;1.00;;;;;;5113579;28;20180;-56
2021/05/23 08:23:46;;;;;;;1.10;0.60;;;17.70;1.00;;;;;;5113843;28;20182;-55
2021/05/23 08:26:12;;;;;;;1.93;0.73;;;17.50;1.00;;;;;;5111717;28;20190;-57
2021/05/23 08:28:38;;;;;;;0.90;0.80;;;17.20;1.00;;;;;;5110597;28;20186;-56
2021/05/23 08:31:04;;;;;;;2.27;0.80;;;17.30;1.00;;;;;;5106663;28;20234;-56
2021/05/23 08:33:31;;;;;;;2.00;1.07;;;17.60;1.00;;;;;;5107413;28;20464;-54
2021/05/23 08:35:57;;;;;;;0.70;0.60;;;18.00;1.00;;;;;;5087005;28;20468;-56
2021/05/23 08:38:23;;;;;;;1.23;0.90;;;18.40;1.00;;;;;;5092844;28;20444;-56
2021/05/23 08:40:49;;;;;;;1.07;0.80;;;18.30;1.00;;;;;;5092665;28;20443;-54
2021/05/23 08:43:15;;;;;;;1.73;0.67;;;18.60;1.00;;;;;;5087641;28;20179;-54
2021/05/23 08:45:42;;;;;;;3.13;0.70;;;19.00;1.00;;;;;;5086484;28;20446;-55
2021/05/23 08:48:08;;;;;;;3.20;0.90;;;19.30;1.00;;;;;;5092979;28;20444;-55
2021/05/23 08:50:34;;;;;;;1.10;0.80;;;18.50;1.00;;;;;;5087024;28;20779;-55
2021/05/23 08:53:03;;;;;;;1.93;1.20;;;19.90;1.00;;;;;;5081898;28;20471;-55
2021/05/23 08:55:31;;;;;;;1.47;0.93;;;19.10;1.00;;;;;;5091110;28;20670;-53
2021/05/23 08:57:59;;;;;;;2.30;0.83;;;18.80;1.00;;;;;;5084188;28;20454;-56
2021/05/23 09:00:25;;;;;;;2.47;0.80;;;18.50;1.00;;;;;;5088106;28;20434;-54
2021/05/23 09:03:03;;;;;;;0.87;0.60;;;18.80;1.00;;;;;;5078363;28;20817;-57
2021/05/23 09:05:50;;;;;;;1.77;1.00;;;19.00;1.00;;;;;;5087008;28;21003;-55
2021/05/23 09:08:18;;;;;;;2.00;0.80;;;19.10;1.00;;;;;;5091803;28;20472;-55
2021/05/23 09:10:46;;;;;;;1.50;0.70;;;18.90;1.00;;;;;;5092264;28;20474;-56
2021/05/23 09:13:13;;;;;;;1.13;0.80;;;18.70;1.00;;;;;;5090277;28;20470;-56
2021/05/23 09:15:39;;;;;;;1.03;0.63;;;18.60;1.00;;;;;;5091061;28;20508;-55
2021/05/23 09:18:11;;;;;;;1.10;0.60;;;18.70;1.00;;;;;;5088304;28;20582;-55
2021/05/23 09:20:39;;;;;;;3.43;0.87;;;18.80;1.00;;;;;;5080718;28;20441;-56
2021/05/23 09:23:20;;;;;;;1.83;0.70;;;19.00;1.00;;;;;;5090828;28;20523;-55
2021/05/23 09:25:46;;;;;;;1.50;0.63;;;19.00;1.00;;;;;;5088439;28;20476;-57
2021/05/23 09:28:11;;;;;;;0.90;0.60;;;19.10;1.00;;;;;;5083402;28;20933;-53
2021/05/23 09:30:39;;;;;;;4.07;0.80;;;19.10;1.00;;;;;;5088072;28;20183;-57
2021/05/23 09:33:06;;;;;;;1.37;0.70;;;19.10;1.00;;;;;;5084059;28;20736;-56
2021/05/23 09:35:41;;;;;;;1.10;0.80;;;19.00;1.00;;;;;;5083690;28;20437;-54
2021/05/23 09:38:07;;;;;;;2.40;0.93;;;19.20;1.00;;;;;;5109893;28;20439;-56
2021/05/23 09:40:35;;;;;;;0.80;0.60;;;19.40;1.00;;;;;;5097771;28;20892;-53
2021/05/23 09:43:02;;;;;;;2.63;0.90;;;18.90;1.00;;;;;;5085582;28;20445;-55
2021/05/23 09:45:51;;;;;;;1.93;0.90;;;18.70;1.00;;;;;;5105752;28;20464;-56
2021/05/23 09:48:24;;;;;;;0.93;0.60;;;19.20;1.00;;;;;;5100910;28;20966;-56
2021/05/23 09:50:52;;;;;;;1.50;0.83;;;19.30;1.00;;;;;;5101779;28;20435;-56
2021/05/23 09:53:32;;;;;;;1.10;0.77;;;19.70;1.00;;;;;;5102553;28;20491;-55
2021/05/23 09:56:03;;;;;;;1.27;0.70;;;20.10;1.00;;;;;;5098925;28;20508;-55
2021/05/23 09:58:34;;;;;;;3.80;0.83;;;20.20;1.00;;;;;;5107335;28;20505;-55
2021/05/23 10:01:00;;;;;;;1.13;0.80;;;20.40;1.00;;;;;;5100190;28;20490;-54
2021/05/23 10:03:31;;;;;;;1.70;0.60;;;20.20;1.00;;;;;;5104113;28;20515;-54
2021/05/23 10:05:58;;;;;;;0.90;0.70;;;19.80;1.00;;;;;;5101665;28;20523;-56
2021/05/23 10:08:24;;;;;;;1.27;0.67;;;19.70;1.00;;;;;;5103569;27;20500;-55
2021/05/23 10:10:51;;;;;;;0.93;0.63;;;19.80;1.00;;;;;;5112626;28;20474;-52
2021/05/23 10:13:18;;;;;;;2.30;1.00;;;19.90;1.00;;;;;;5100349;28;20475;-54
2021/05/23 10:15:44;;;;;;;1.50;0.67;;;19.60;1.00;;;;;;5100636;28;20449;-54
2021/05/23 10:18:10;;;;;;;4.10;0.90;;;19.40;1.00;;;;;;5097370;27;20441;-56
2021/05/23 10:20:36;;;;;;;3.67;1.00;;;19.50;1.00;;;;;;5097141;28;20489;-54
2021/05/23 10:23:14;;;;;;;1.03;0.47;;;21.30;1.00;;;;;;5090328;28;20444;-56
2021/05/23 10:25:50;;;;;;;0.97;0.60;;;19.60;1.00;;;;;;5110586;27;20459;-54
2021/05/23 10:28:17;;;;;;;3.33;0.83;;;19.50;1.00;;;;;;5087765;28;20844;-57
2021/05/23 10:30:56;;;;;;;1.67;0.83;;;19.20;1.00;;;;;;5101725;27;20505;-56
2021/05/23 10:33:23;;;;;;;2.47;1.57;;;18.90;1.00;;;;;;5104016;27;20472;-55
2021/05/23 10:35:51;;;;;;;3.53;0.80;;;18.90;1.00;;;;;;5089180;28;20467;-55
2021/05/23 10:38:23;;;;;;;1.03;0.60;;;18.90;1.00;;;;;;5108328;27;20914;-55
2021/05/23 10:40:58;;;;;;;1.70;1.10;;;18.30;1.00;;;;;;5111106;28;20505;-55
2021/05/23 10:43:33;;;;;;;1.43;0.63;;;18.30;1.00;;;;;;5109409;28;20438;-56
2021/05/23 10:46:03;;;;;;;0.80;0.80;;;18.20;1.00;;;;;;5111730;28;20462;-56
2021/05/23 10:48:28;;;;;;;1.53;0.87;;;18.20;1.00;;;;;;5108008;28;20586;-55
2021/05/23 10:50:54;;;;;;;1.27;0.80;;;18.10;1.00;;;;;;5091744;28;20510;-56
2021/05/23 10:53:22;;;;;;;0.60;0.60;;;18.00;1.00;;;;;;5107089;27;20975;-56
2021/05/23 10:55:55;;;;;;;2.67;0.90;;;17.90;1.00;;;;;;5112763;27;20243;-57
2021/05/23 10:58:26;;;;;;;1.27;0.70;;;18.60;1.00;;;;;;5093760;27;20964;-57
2021/05/23 11:00:57;;;;;;;2.03;1.20;;;18.30;1.00;;;;;;5073404;28;20445;-56
2021/05/23 11:03:25;;;;;;;1.27;0.70;;;18.40;1.00;;;;;;5091213;28;20931;-57
2021/05/23 11:06:02;;;;;;;0.87;0.73;;;18.60;1.00;;;;;;5109526;27;20770;-57
2021/05/23 11:08:33;;;;;;;3.03;0.90;;;18.90;1.00;;;;;;5087399;28;20504;-57
2021/05/23 11:10:59;;;;;;;2.60;1.07;;;19.20;1.00;;;;;;5109416;27;20573;-55
2021/05/23 11:13:32;;;;;;;1.97;1.00;;;19.60;1.00;;;;;;5084879;28;21006;-55
2021/05/23 11:16:14;;;;;;;2.10;0.90;;;20.10;1.00;;;;;;5110844;28;20439;-56
2021/05/23 11:18:41;;;;;;;3.10;1.23;;;20.30;1.00;;;;;;5110615;28;20443;-58
2021/05/23 11:21:16;;;;;;;1.23;0.80;;;20.40;1.00;;;;;;5111007;28;20442;-55
2021/05/23 11:23:57;;;;;;;2.37;1.40;;;20.50;1.00;;;;;;5110363;28;20439;-55
2021/05/23 11:26:25;;;;;;;1.60;1.23;;;20.50;1.00;;;;;;5104550;28;20442;-55
2021/05/23 11:28:53;;;;;;;1.30;0.80;;;20.60;1.00;;;;;;5095965;28;20783;-57
2021/05/23 11:31:21;;;;;;;1.67;1.03;;;20.20;1.00;;;;;;5110053;28;20473;-56
2021/05/23 11:33:50;;;;;;;2.30;0.73;;;19.80;1.00;;;;;;5093237;27;20475;-56
2021/05/23 11:36:21;;;;;;;1.57;0.90;;;19.80;1.00;;;;;;5110682;28;20984;-57
2021/05/23 11:38:46;;;;;;;1.90;0.83;;;19.70;1.00;;;;;;5091521;28;20478;-56
2021/05/23 11:41:12;;;;;;;0.90;0.57;;;19.40;1.00;;;;;;5110298;28;20467;-57
2021/05/23 11:43:38;;;;;;;1.43;0.60;;;18.40;1.00;;;;;;5110084;28;20197;-56
2021/05/23 11:46:06;;;;;;;1.53;0.70;;;17.60;1.00;;;;;;5109751;27;20448;-57
2021/05/23 11:48:41;;;;;;;1.40;0.60;;;16.80;1.00;;;;;;5110511;27;20184;-56
2021/05/23 11:51:11;;;;;;;1.13;0.80;;;16.40;1.00;;;;;;5110610;28;20451;-55
2021/05/23 11:53:43;;;;;;;0.60;0.60;;;16.40;1.00;;;;;;5110401;28;20524;-57
2021/05/23 11:56:13;;;;;;;0.97;0.60;;;16.40;1.00;;;;;;5110799;28;21129;-57
2021/05/23 11:58:39;;;;;;;1.10;0.60;;;16.60;1.00;;;;;;5110765;28;20935;-56
2021/05/23 12:01:20;;;;;;;4.13;0.60;;;16.70;1.00;;;;;;5110588;28;20457;-57
2021/05/23 12:04:11;;;;;;;1.23;0.60;;;16.70;1.00;;;;;;5094601;28;20194;-57
2021/05/23 12:06:39;;;;;;;2.17;1.17;;;16.50;1.00;;;;;;5110562;28;20414;-56
2021/05/23 12:09:07;;;;;;;4.80;0.70;;;15.60;1.00;;;;;;5110476;28;20443;-57
2021/05/23 12:11:49;;;;;;;0.87;0.77;;;15.50;1.00;;;;;;5110384;28;20936;-57
2021/05/23 12:14:34;;;;;;;0.60;0.60;;;15.30;1.00;;;;;;5110428;28;20448;-57
2021/05/23 12:17:12;;;;;;;2.67;1.27;;;15.30;1.00;;;;;;5091891;28;20543;-56
2021/05/23 12:19:50;;;;;;;1.40;0.60;;;15.50;1.00;;;;;;5110785;28;20522;-58
2021/05/23 12:22:32;;;;;;;1.73;1.10;;;15.80;1.00;;;;;;5110423;28;21015;-58
2021/05/23 12:25:04;;;;;;;1.03;0.80;;;16.00;1.00;;;;;;5110647;28;20431;-58
2021/05/23 12:27:42;;;;;;;1.80;1.20;;;16.20;1.00;;;;;;5110495;28;20436;-58
2021/05/23 12:30:14;;;;;;;1.30;0.90;;;16.30;1.00;;;;;;5111667;28;20475;-58
2021/05/23 12:32:44;;;;;;;4.33;1.77;;;16.50;1.00;;;;;;5109788;28;20472;-56
2021/05/23 12:35:15;;;;;;;1.70;0.90;;;16.70;1.00;;;;;;5110047;28;20442;-57
2021/05/23 12:37:47;;;;;;;0.97;0.80;;;17.10;1.00;;;;;;5109989;28;20463;-58
2021/05/23 12:40:14;;;;;;;1.53;0.60;;;17.40;1.00;;;;;;5110401;28;20432;-57
2021/05/23 12:42:40;;;;;;;1.60;0.80;;;17.70;1.00;;;;;;5109897;28;20447;-57
2021/05/23 12:45:07;;;;;;;1.67;0.80;;;17.70;1.00;;;;;;5110351;28;20443;-56
2021/05/23 12:47:32;;;;;;;1.47;0.80;;;17.70;1.00;;;;;;5092049;28;20205;-56
2021/05/23 12:49:58;;;;;;;1.77;0.90;;;17.80;1.00;;;;;;5106112;28;20436;-55
2021/05/23 12:52:24;;;;;;;1.63;0.80;;;17.80;1.00;;;;;;5091624;28;20228;-57
2021/05/23 12:54:49;;;;;;;0.73;0.60;;;18.00;1.00;;;;;;5113711;28;20823;-57
2021/05/23 12:57:16;;;;;;;1.10;0.63;;;18.30;1.00;;;;;;5095588;28;20178;-57
2021/05/23 12:59:43;;;;;;;1.10;0.60;;;18.70;1.00;;;;;;5113863;28;20188;-56
2021/05/23 13:02:10;;;;;;;1.33;0.50;;;19.00;1.00;;;;;;5113558;28;20471;-57